sensor_id;sensor_type;location;lat;lon;timestamp;pressure;altitude;pressure_sealevel;temperature;humidity
38054;BME280;23859;50.672;7.164;2023-05-21T00:00:06;47224.34;;;-140.95;66.07
38054;BME280;23859;50.672;7.164;2023-05-21T00:02:36;47228.38;;;-140.95;66.29
38054;BME280;23859;50.672;7.164;2023-05-21T00:05:03;47238.44;;;-140.95;66.42
38054;BME280;23859;50.672;7.164;2023-05-21T00:07:30;47242.47;;;-140.95;66.15
38054;BME280;23859;50.672;7.164;2023-05-21T00:09:59;47232.41;;;-140.95;65.95
38054;BME280;23859;50.672;7.164;2023-05-21T00:12:25;47224.34;;;-140.95;65.77
38054;BME280;23859;50.672;7.164;2023-05-21T00:14:51;47220.31;;;-140.95;67.19
38054;BME280;23859;50.672;7.164;2023-05-21T00:17:17;47234.41;;;-140.95;66.74
38054;BME280;23859;50.672;7.164;2023-05-21T00:19:43;47240.47;;;-140.95;67.10
38054;BME280;23859;50.672;7.164;2023-05-21T00:22:09;47240.47;;;-140.95;67.00
38054;BME280;23859;50.672;7.164;2023-05-21T00:24:35;47246.50;;;-140.95;66.92
38054;BME280;23859;50.672;7.164;2023-05-21T00:27:01;47250.53;;;-140.95;67.30
38054;BME280;23859;50.672;7.164;2023-05-21T00:29:27;47244.50;;;-140.95;67.91
38054;BME280;23859;50.672;7.164;2023-05-21T00:31:54;47246.50;;;-140.95;68.02
38054;BME280;23859;50.672;7.164;2023-05-21T00:34:21;47254.56;;;-140.95;68.05
38054;BME280;23859;50.672;7.164;2023-05-21T00:36:47;47244.50;;;-140.95;68.02
38054;BME280;23859;50.672;7.164;2023-05-21T00:39:13;47264.63;;;-140.95;68.23
38054;BME280;23859;50.672;7.164;2023-05-21T00:41:39;47262.63;;;-140.95;68.68
38054;BME280;23859;50.672;7.164;2023-05-21T00:44:08;47264.63;;;-140.95;68.58
38054;BME280;23859;50.672;7.164;2023-05-21T00:46:34;47262.63;;;-140.95;68.58
38054;BME280;23859;50.672;7.164;2023-05-21T00:49:01;47232.41;;;-140.95;67.35
38054;BME280;23859;50.672;7.164;2023-05-21T00:51:27;47254.56;;;-140.95;68.00
38054;BME280;23859;50.672;7.164;2023-05-21T00:53:55;47244.50;;;-140.95;68.27
38054;BME280;23859;50.672;7.164;2023-05-21T00:56:23;47264.63;;;-140.95;68.90
38054;BME280;23859;50.672;7.164;2023-05-21T00:58:50;47260.59;;;-140.95;69.49
38054;BME280;23859;50.672;7.164;2023-05-21T01:01:17;47282.78;;;-140.95;69.91
38054;BME280;23859;50.672;7.164;2023-05-21T01:03:43;47262.63;;;-140.95;70.06
38054;BME280;23859;50.672;7.164;2023-05-21T01:06:10;47272.69;;;-140.95;70.08
38054;BME280;23859;50.672;7.164;2023-05-21T01:08:37;47268.66;;;-140.95;70.23
38054;BME280;23859;50.672;7.164;2023-05-21T01:11:04;47258.59;;;-140.95;70.05
38054;BME280;23859;50.672;7.164;2023-05-21T01:13:32;47278.75;;;-140.95;70.17
38054;BME280;23859;50.672;7.164;2023-05-21T01:15:59;47276.72;;;-140.95;70.65
38054;BME280;23859;50.672;7.164;2023-05-21T01:18:29;47280.75;;;-140.95;71.17
38054;BME280;23859;50.672;7.164;2023-05-21T01:21:00;47264.63;;;-140.95;71.17
38054;BME280;23859;50.672;7.164;2023-05-21T01:23:27;47294.88;;;-140.95;71.05
38054;BME280;23859;50.672;7.164;2023-05-21T01:25:53;47272.69;;;-140.95;71.09
38054;BME280;23859;50.672;7.164;2023-05-21T01:28:19;47278.75;;;-140.95;71.14
38054;BME280;23859;50.672;7.164;2023-05-21T01:30:46;47276.72;;;-140.95;71.61
38054;BME280;23859;50.672;7.164;2023-05-21T01:33:37;47272.69;;;-140.95;71.18
38054;BME280;23859;50.672;7.164;2023-05-21T01:36:14;47276.72;;;-140.95;70.51
38054;BME280;23859;50.672;7.164;2023-05-21T01:38:47;47268.66;;;-140.95;70.49
38054;BME280;23859;50.672;7.164;2023-05-21T01:41:17;47264.63;;;-140.95;69.35
38054;BME280;23859;50.672;7.164;2023-05-21T01:43:45;47288.81;;;-140.95;70.89
38054;BME280;23859;50.672;7.164;2023-05-21T01:46:15;47268.66;;;-140.95;70.45
38054;BME280;23859;50.672;7.164;2023-05-21T01:48:43;47280.75;;;-140.95;71.36
38054;BME280;23859;50.672;7.164;2023-05-21T01:51:09;47294.88;;;-140.95;71.35
38054;BME280;23859;50.672;7.164;2023-05-21T01:53:36;47280.75;;;-140.95;71.71
38054;BME280;23859;50.672;7.164;2023-05-21T01:56:05;47278.75;;;-140.95;72.11
38054;BME280;23859;50.672;7.164;2023-05-21T01:58:31;47284.78;;;-140.95;71.93
38054;BME280;23859;50.672;7.164;2023-05-21T02:00:57;47268.66;;;-140.95;71.46
38054;BME280;23859;50.672;7.164;2023-05-21T02:03:25;47282.78;;;-140.95;71.32
38054;BME280;23859;50.672;7.164;2023-05-21T02:05:52;47276.72;;;-140.95;71.86
38054;BME280;23859;50.672;7.164;2023-05-21T02:08:18;47282.78;;;-140.95;72.04
38054;BME280;23859;50.672;7.164;2023-05-21T02:10:45;47272.69;;;-140.95;71.29
38054;BME280;23859;50.672;7.164;2023-05-21T02:13:11;47268.66;;;-140.95;71.04
38054;BME280;23859;50.672;7.164;2023-05-21T02:15:37;47280.75;;;-140.95;71.05
38054;BME280;23859;50.672;7.164;2023-05-21T02:18:03;47298.91;;;-140.95;71.05
38054;BME280;23859;50.672;7.164;2023-05-21T02:20:30;47171.94;;;-140.95;71.31
38054;BME280;23859;50.672;7.164;2023-05-21T02:22:56;47280.75;;;-140.95;71.29
38054;BME280;23859;50.672;7.164;2023-05-21T02:25:22;47276.72;;;-140.95;71.04
38054;BME280;23859;50.672;7.164;2023-05-21T02:27:48;47280.75;;;-140.95;71.33
38054;BME280;23859;50.672;7.164;2023-05-21T02:30:18;47264.63;;;-140.95;70.74
38054;BME280;23859;50.672;7.164;2023-05-21T02:32:44;47272.69;;;-140.95;70.53
38054;BME280;23859;50.672;7.164;2023-05-21T02:35:11;47278.75;;;-140.95;71.01
38054;BME280;23859;50.672;7.164;2023-05-21T02:37:38;47274.72;;;-140.95;71.48
38054;BME280;23859;50.672;7.164;2023-05-21T02:40:06;47284.78;;;-140.95;71.35
38054;BME280;23859;50.672;7.164;2023-05-21T02:42:33;47286.81;;;-140.95;71.44
38054;BME280;23859;50.672;7.164;2023-05-21T02:45:01;47284.78;;;-140.95;71.32
38054;BME280;23859;50.672;7.164;2023-05-21T02:47:27;47284.78;;;-140.95;71.65
38054;BME280;23859;50.672;7.164;2023-05-21T02:49:53;47288.81;;;-140.95;71.44
38054;BME280;23859;50.672;7.164;2023-05-21T02:52:20;47280.75;;;-140.95;71.69
38054;BME280;23859;50.672;7.164;2023-05-21T02:54:49;47296.88;;;-140.95;71.66
38054;BME280;23859;50.672;7.164;2023-05-21T02:57:15;47296.88;;;-140.95;71.70
38054;BME280;23859;50.672;7.164;2023-05-21T02:59:43;47286.81;;;-140.95;71.82
38054;BME280;23859;50.672;7.164;2023-05-21T03:02:10;47302.91;;;-140.95;72.04
38054;BME280;23859;50.672;7.164;2023-05-21T03:04:36;47296.88;;;-140.95;71.54
38054;BME280;23859;50.672;7.164;2023-05-21T03:07:04;47171.94;;;-140.95;71.29
38054;BME280;23859;50.672;7.164;2023-05-21T03:09:30;47284.78;;;-140.95;72.40
38054;BME280;23859;50.672;7.164;2023-05-21T03:11:56;47302.91;;;-140.95;72.21
38054;BME280;23859;50.672;7.164;2023-05-21T03:14:22;47298.91;;;-140.95;72.31
38054;BME280;23859;50.672;7.164;2023-05-21T03:16:49;47292.84;;;-140.95;72.21
38054;BME280;23859;50.672;7.164;2023-05-21T03:19:16;47302.91;;;-140.95;72.37
38054;BME280;23859;50.672;7.164;2023-05-21T03:21:42;47278.75;;;-140.95;71.69
38054;BME280;23859;50.672;7.164;2023-05-21T03:24:08;47284.78;;;-140.95;72.13
38054;BME280;23859;50.672;7.164;2023-05-21T03:26:34;47302.91;;;-140.95;71.85
38054;BME280;23859;50.672;7.164;2023-05-21T03:29:00;47284.78;;;-140.95;72.01
38054;BME280;23859;50.672;7.164;2023-05-21T03:31:27;47284.78;;;-140.95;71.45
38054;BME280;23859;50.672;7.164;2023-05-21T03:33:53;47288.81;;;-140.95;70.91
38054;BME280;23859;50.672;7.164;2023-05-21T03:36:19;47294.88;;;-140.95;71.25
38054;BME280;23859;50.672;7.164;2023-05-21T03:38:46;47268.66;;;-140.95;70.87
38054;BME280;23859;50.672;7.164;2023-05-21T03:41:12;47296.88;;;-140.95;70.88
38054;BME280;23859;50.672;7.164;2023-05-21T03:43:38;47208.22;;;-140.95;70.84
38054;BME280;23859;50.672;7.164;2023-05-21T03:46:04;47268.66;;;-140.95;69.91
38054;BME280;23859;50.672;7.164;2023-05-21T03:48:30;47280.75;;;-140.95;69.85
38054;BME280;23859;50.672;7.164;2023-05-21T03:50:56;47276.72;;;-140.95;70.39
38054;BME280;23859;50.672;7.164;2023-05-21T03:53:23;47258.59;;;-140.95;69.32
38054;BME280;23859;50.672;7.164;2023-05-21T03:55:49;47272.69;;;-140.95;69.37
38054;BME280;23859;50.672;7.164;2023-05-21T03:58:23;47268.66;;;-140.95;69.70
38054;BME280;23859;50.672;7.164;2023-05-21T04:00:49;47280.75;;;-140.95;69.58
38054;BME280;23859;50.672;7.164;2023-05-21T04:03:15;47268.66;;;-140.95;70.14
38054;BME280;23859;50.672;7.164;2023-05-21T04:05:42;47266.66;;;-140.95;69.97
38054;BME280;23859;50.672;7.164;2023-05-21T04:08:09;47282.78;;;-140.95;70.18
38054;BME280;23859;50.672;7.164;2023-05-21T04:10:35;47284.78;;;-140.95;70.52
38054;BME280;23859;50.672;7.164;2023-05-21T04:13:01;47290.84;;;-140.95;70.88
38054;BME280;23859;50.672;7.164;2023-05-21T04:15:27;47280.75;;;-140.95;70.99
38054;BME280;23859;50.672;7.164;2023-05-21T04:17:54;47286.81;;;-140.95;71.12
38054;BME280;23859;50.672;7.164;2023-05-21T04:20:20;47284.78;;;-140.95;71.22
38054;BME280;23859;50.672;7.164;2023-05-21T04:22:46;47294.88;;;-140.95;72.07
38054;BME280;23859;50.672;7.164;2023-05-21T04:25:12;47298.91;;;-140.95;71.78
38054;BME280;23859;50.672;7.164;2023-05-21T04:27:38;47294.88;;;-140.95;71.36
38054;BME280;23859;50.672;7.164;2023-05-21T04:30:06;47292.84;;;-140.95;71.47
38054;BME280;23859;50.672;7.164;2023-05-21T04:32:32;47294.88;;;-140.95;70.95
38054;BME280;23859;50.672;7.164;2023-05-21T04:34:59;47292.84;;;-140.95;70.91
38054;BME280;23859;50.672;7.164;2023-05-21T04:37:29;47276.72;;;-140.95;70.37
38054;BME280;23859;50.672;7.164;2023-05-21T04:39:56;47276.72;;;-140.95;70.38
38054;BME280;23859;50.672;7.164;2023-05-21T04:42:23;47276.72;;;-140.95;70.31
38054;BME280;23859;50.672;7.164;2023-05-21T04:44:49;47284.78;;;-140.95;69.60
38054;BME280;23859;50.672;7.164;2023-05-21T04:47:16;47278.75;;;-140.95;69.45
38054;BME280;23859;50.672;7.164;2023-05-21T04:49:43;47165.91;;;-140.95;69.90
38054;BME280;23859;50.672;7.164;2023-05-21T04:52:10;47266.66;;;-140.95;70.37
38054;BME280;23859;50.672;7.164;2023-05-21T04:54:36;47274.72;;;-140.95;69.89
38054;BME280;23859;50.672;7.164;2023-05-21T04:57:04;47292.84;;;-140.95;69.33
38054;BME280;23859;50.672;7.164;2023-05-21T04:59:31;47272.69;;;-140.95;69.20
38054;BME280;23859;50.672;7.164;2023-05-21T05:01:57;47264.63;;;-140.95;68.88
38054;BME280;23859;50.672;7.164;2023-05-21T05:04:23;47260.59;;;-140.95;69.07
38054;BME280;23859;50.672;7.164;2023-05-21T05:06:49;47274.72;;;-140.95;68.87
38054;BME280;23859;50.672;7.164;2023-05-21T05:09:16;47238.44;;;-140.95;67.63
38054;BME280;23859;50.672;7.164;2023-05-21T05:11:43;47250.53;;;-140.95;67.65
38054;BME280;23859;50.672;7.164;2023-05-21T05:14:09;47244.50;;;-140.95;67.09
38054;BME280;23859;50.672;7.164;2023-05-21T05:16:35;47254.56;;;-140.95;67.56
38054;BME280;23859;50.672;7.164;2023-05-21T05:19:01;47258.59;;;-140.95;67.58
38054;BME280;23859;50.672;7.164;2023-05-21T05:21:27;47248.50;;;-140.95;68.84
38054;BME280;23859;50.672;7.164;2023-05-21T05:23:53;47728.13;;;-140.95;67.94
38054;BME280;23859;50.672;7.164;2023-05-21T05:26:19;47252.53;;;-140.95;67.49
38054;BME280;23859;50.672;7.164;2023-05-21T05:28:46;47246.50;;;-140.95;68.38
38054;BME280;23859;50.672;7.164;2023-05-21T05:31:12;47252.53;;;-140.95;68.01
38054;BME280;23859;50.672;7.164;2023-05-21T05:33:38;47250.53;;;-140.95;67.07
38054;BME280;23859;50.672;7.164;2023-05-21T05:36:06;47238.44;;;-140.95;67.00
38054;BME280;23859;50.672;7.164;2023-05-21T05:38:33;47236.44;;;-140.95;66.49
38054;BME280;23859;50.672;7.164;2023-05-21T05:41:00;47240.47;;;-140.95;66.96
38054;BME280;23859;50.672;7.164;2023-05-21T05:43:26;47240.47;;;-140.95;66.29
38054;BME280;23859;50.672;7.164;2023-05-21T05:45:52;47230.38;;;-140.95;66.16
38054;BME280;23859;50.672;7.164;2023-05-21T05:48:18;47224.34;;;-140.95;65.91
38054;BME280;23859;50.672;7.164;2023-05-21T05:50:44;47226.34;;;-140.95;66.31
38054;BME280;23859;50.672;7.164;2023-05-21T05:53:11;47244.50;;;-140.95;66.25
38054;BME280;23859;50.672;7.164;2023-05-21T05:55:38;47254.56;;;-140.95;66.37
38054;BME280;23859;50.672;7.164;2023-05-21T05:58:04;47244.50;;;-140.95;66.04
38054;BME280;23859;50.672;7.164;2023-05-21T06:00:30;47232.41;;;-140.95;65.96
38054;BME280;23859;50.672;7.164;2023-05-21T06:02:57;47226.34;;;-140.95;64.55
38054;BME280;23859;50.672;7.164;2023-05-21T06:05:23;47196.13;;;-140.95;63.85
38054;BME280;23859;50.672;7.164;2023-05-21T06:07:49;47194.13;;;-140.95;64.09
38054;BME280;23859;50.672;7.164;2023-05-21T06:10:15;47208.22;;;-140.95;63.51
38054;BME280;23859;50.672;7.164;2023-05-21T06:12:41;47184.03;;;-140.95;62.31
38054;BME280;23859;50.672;7.164;2023-05-21T06:15:08;47180.00;;;-140.95;62.70
38054;BME280;23859;50.672;7.164;2023-05-21T06:17:34;47182.03;;;-140.95;62.62
38054;BME280;23859;50.672;7.164;2023-05-21T06:20:00;47180.00;;;-140.95;61.84
38054;BME280;23859;50.672;7.164;2023-05-21T06:22:26;47173.97;;;-140.95;61.47
38054;BME280;23859;50.672;7.164;2023-05-21T06:24:52;47155.81;;;-140.95;62.07
38054;BME280;23859;50.672;7.164;2023-05-21T06:27:18;47169.94;;;-140.95;60.67
38054;BME280;23859;50.672;7.164;2023-05-21T06:29:44;47147.75;;;-140.95;60.06
38054;BME280;23859;50.672;7.164;2023-05-21T06:32:10;47139.72;;;-140.95;59.00
38054;BME280;23859;50.672;7.164;2023-05-21T06:34:36;47145.75;;;-140.95;59.58
38054;BME280;23859;50.672;7.164;2023-05-21T06:37:02;47127.63;;;-140.95;58.02
38054;BME280;23859;50.672;7.164;2023-05-21T06:39:28;47061.13;;;-140.95;58.75
38054;BME280;23859;50.672;7.164;2023-05-21T06:41:54;47109.47;;;-140.95;55.06
38054;BME280;23859;50.672;7.164;2023-05-21T06:44:20;47069.19;;;-140.95;54.31
38054;BME280;23859;50.672;7.164;2023-05-21T06:46:47;47546.75;;;-140.95;52.06
38054;BME280;23859;50.672;7.164;2023-05-21T06:49:13;47045.00;;;-140.95;51.20
38054;BME280;23859;50.672;7.164;2023-05-21T06:51:39;47059.09;;;-140.95;51.36
38054;BME280;23859;50.672;7.164;2023-05-21T06:54:05;47051.03;;;-140.95;51.12
38054;BME280;23859;50.672;7.164;2023-05-21T06:56:32;47038.97;;;-140.95;50.38
38054;BME280;23859;50.672;7.164;2023-05-21T06:58:58;47051.03;;;-140.95;49.86
38054;BME280;23859;50.672;7.164;2023-05-21T07:01:24;47032.91;;;-140.95;48.61
38054;BME280;23859;50.672;7.164;2023-05-21T07:03:51;47024.84;;;-140.95;49.37
38054;BME280;23859;50.672;7.164;2023-05-21T07:06:17;47020.81;;;-140.95;48.05
38054;BME280;23859;50.672;7.164;2023-05-21T07:08:43;47008.72;;;-140.95;46.97
38054;BME280;23859;50.672;7.164;2023-05-21T07:11:09;46978.50;;;-140.95;45.11
38054;BME280;23859;50.672;7.164;2023-05-21T07:13:36;46934.19;;;-140.95;43.26
38054;BME280;23859;50.672;7.164;2023-05-21T07:16:02;46889.84;;;-140.95;39.70
38054;BME280;23859;50.672;7.164;2023-05-21T07:18:28;46944.25;;;-140.95;42.68
38054;BME280;23859;50.672;7.164;2023-05-21T07:20:54;46895.91;;;-140.95;40.25
38054;BME280;23859;50.672;7.164;2023-05-21T07:23:20;46831.44;;;-140.95;37.31
38054;BME280;23859;50.672;7.164;2023-05-21T07:25:46;46857.63;;;-140.95;36.60
38054;BME280;23859;50.672;7.164;2023-05-21T07:28:12;46839.50;;;-140.95;35.52
38054;BME280;23859;50.672;7.164;2023-05-21T07:30:38;46845.53;;;-140.95;34.89
38054;BME280;23859;50.672;7.164;2023-05-21T07:33:04;46791.13;;;-140.95;33.46
38054;BME280;23859;50.672;7.164;2023-05-21T07:35:31;46807.25;;;-140.95;33.88
38054;BME280;23859;50.672;7.164;2023-05-21T07:37:57;46809.25;;;-140.95;34.16
38054;BME280;23859;50.672;7.164;2023-05-21T07:40:23;46845.53;;;-140.95;34.74
38054;BME280;23859;50.672;7.164;2023-05-21T07:42:49;46791.13;;;-140.95;34.75
38054;BME280;23859;50.672;7.164;2023-05-21T07:45:15;46823.38;;;-140.95;35.00
38054;BME280;23859;50.672;7.164;2023-05-21T07:47:43;46768.97;;;-140.95;32.45
38054;BME280;23859;50.672;7.164;2023-05-21T07:50:10;46750.84;;;-140.95;31.63
38054;BME280;23859;50.672;7.164;2023-05-21T07:52:36;46748.81;;;-140.95;31.10
38054;BME280;23859;50.672;7.164;2023-05-21T07:55:02;46773.00;;;-140.95;32.80
38054;BME280;23859;50.672;7.164;2023-05-21T07:57:28;46857.63;;;-140.95;36.60
38054;BME280;23859;50.672;7.164;2023-05-21T07:59:54;46847.53;;;-140.95;36.58
38054;BME280;23859;50.672;7.164;2023-05-21T08:02:21;46877.78;;;-140.95;38.52
38054;BME280;23859;50.672;7.164;2023-05-21T08:04:47;46859.63;;;-140.95;38.41
38054;BME280;23859;50.672;7.164;2023-05-21T08:07:13;46879.78;;;-140.95;39.59
38054;BME280;23859;50.672;7.164;2023-05-21T08:09:41;46879.78;;;-140.95;39.31
38054;BME280;23859;50.672;7.164;2023-05-21T08:12:07;46881.81;;;-140.95;39.68
38054;BME280;23859;50.672;7.164;2023-05-21T08:14:33;46938.22;;;-140.95;41.78
38054;BME280;23859;50.672;7.164;2023-05-21T08:16:59;46980.53;;;-140.95;44.06
38054;BME280;23859;50.672;7.164;2023-05-21T08:19:25;46942.25;;;-140.95;43.58
38054;BME280;23859;50.672;7.164;2023-05-21T08:21:51;46962.41;;;-140.95;44.16
38054;BME280;23859;50.672;7.164;2023-05-21T08:24:17;46940.22;;;-140.95;44.15
38054;BME280;23859;50.672;7.164;2023-05-21T08:26:43;46970.44;;;-140.95;45.22
38054;BME280;23859;50.672;7.164;2023-05-21T08:29:09;46966.41;;;-140.95;45.91
38054;BME280;23859;50.672;7.164;2023-05-21T08:31:35;46964.41;;;-140.95;44.65
38054;BME280;23859;50.672;7.164;2023-05-21T08:34:01;46954.34;;;-140.95;44.94
38054;BME280;23859;50.672;7.164;2023-05-21T08:36:28;46942.25;;;-140.95;46.03
38054;BME280;23859;50.672;7.164;2023-05-21T08:38:54;46958.38;;;-140.95;46.51
38054;BME280;23859;50.672;7.164;2023-05-21T08:41:20;46942.25;;;-140.95;46.09
38054;BME280;23859;50.672;7.164;2023-05-21T08:43:55;46944.25;;;-140.95;44.82
38054;BME280;23859;50.672;7.164;2023-05-21T08:46:22;46934.19;;;-140.95;46.58
38054;BME280;23859;50.672;7.164;2023-05-21T08:48:51;46910.00;;;-140.95;43.99
38054;BME280;23859;50.672;7.164;2023-05-21T08:51:21;46932.16;;;-140.95;44.96
38054;BME280;23859;50.672;7.164;2023-05-21T08:53:47;46920.09;;;-140.95;43.65
38054;BME280;23859;50.672;7.164;2023-05-21T08:56:16;46905.97;;;-140.95;43.55
38054;BME280;23859;50.672;7.164;2023-05-21T08:58:45;46916.06;;;-140.95;42.49
38054;BME280;23859;50.672;7.164;2023-05-21T09:01:12;46922.09;;;-140.95;43.87
38054;BME280;23859;50.672;7.164;2023-05-21T09:03:39;46922.09;;;-140.95;43.48
38054;BME280;23859;50.672;7.164;2023-05-21T09:06:14;46912.03;;;-140.95;43.52
38054;BME280;23859;50.672;7.164;2023-05-21T09:08:44;46910.00;;;-140.95;42.44
38054;BME280;23859;50.672;7.164;2023-05-21T09:11:11;46912.03;;;-140.95;44.71
38054;BME280;23859;50.672;7.164;2023-05-21T09:13:39;46901.94;;;-140.95;42.61
38054;BME280;23859;50.672;7.164;2023-05-21T09:16:06;46914.03;;;-140.95;43.61
38054;BME280;23859;50.672;7.164;2023-05-21T09:18:34;46922.09;;;-140.95;44.63
38054;BME280;23859;50.672;7.164;2023-05-21T09:21:24;46910.00;;;-140.95;41.87
38054;BME280;23859;50.672;7.164;2023-05-21T09:23:58;46869.72;;;-140.95;40.39
38054;BME280;23859;50.672;7.164;2023-05-21T09:26:25;46853.59;;;-140.95;39.57
38054;BME280;23859;50.672;7.164;2023-05-21T09:28:55;46851.56;;;-140.95;39.59
38054;BME280;23859;50.672;7.164;2023-05-21T09:31:23;46889.84;;;-140.95;39.79
38054;BME280;23859;50.672;7.164;2023-05-21T09:33:49;46881.81;;;-140.95;41.62
38054;BME280;23859;50.672;7.164;2023-05-21T09:36:20;46873.75;;;-140.95;40.67
38054;BME280;23859;50.672;7.164;2023-05-21T09:38:47;46889.84;;;-140.95;41.01
38054;BME280;23859;50.672;7.164;2023-05-21T09:41:14;46869.72;;;-140.95;40.61
38054;BME280;23859;50.672;7.164;2023-05-21T09:43:43;46889.84;;;-140.95;41.19
38054;BME280;23859;50.672;7.164;2023-05-21T09:46:09;46879.78;;;-140.95;42.35
38054;BME280;23859;50.672;7.164;2023-05-21T09:48:41;46897.91;;;-140.95;41.34
38054;BME280;23859;50.672;7.164;2023-05-21T09:53:43;46895.91;;;-140.95;42.77
38054;BME280;23859;50.672;7.164;2023-05-21T09:56:09;46897.91;;;-140.95;43.88
38054;BME280;23859;50.672;7.164;2023-05-21T09:58:36;46905.97;;;-140.95;42.93
38054;BME280;23859;50.672;7.164;2023-05-21T10:01:03;46901.94;;;-140.95;42.27
38054;BME280;23859;50.672;7.164;2023-05-21T10:03:29;46905.97;;;-140.95;42.74
38054;BME280;23859;50.672;7.164;2023-05-21T10:05:57;46895.91;;;-140.95;43.83
38054;BME280;23859;50.672;7.164;2023-05-21T10:08:26;46889.84;;;-140.95;43.59
38054;BME280;23859;50.672;7.164;2023-05-21T10:10:56;46897.91;;;-140.95;42.72
38054;BME280;23859;50.672;7.164;2023-05-21T10:13:23;46914.03;;;-140.95;45.02
38054;BME280;23859;50.672;7.164;2023-05-21T10:15:58;46912.03;;;-140.95;44.00
38054;BME280;23859;50.672;7.164;2023-05-21T10:18:24;46849.56;;;-140.95;43.85
38054;BME280;23859;50.672;7.164;2023-05-21T10:20:52;46910.00;;;-140.95;43.90
38054;BME280;23859;50.672;7.164;2023-05-21T10:23:19;46903.97;;;-140.95;42.76
38054;BME280;23859;50.672;7.164;2023-05-21T10:25:45;46910.00;;;-140.95;42.29
38054;BME280;23859;50.672;7.164;2023-05-21T10:28:15;46893.88;;;-140.95;42.68
38054;BME280;23859;50.672;7.164;2023-05-21T10:30:42;46891.88;;;-140.95;41.24
38054;BME280;23859;50.672;7.164;2023-05-21T10:33:10;46893.88;;;-140.95;42.02
38054;BME280;23859;50.672;7.164;2023-05-21T10:35:39;46910.00;;;-140.95;43.52
38054;BME280;23859;50.672;7.164;2023-05-21T10:38:07;46873.75;;;-140.95;40.79
38054;BME280;23859;50.672;7.164;2023-05-21T10:40:34;46857.63;;;-140.95;39.95
38054;BME280;23859;50.672;7.164;2023-05-21T10:48:51;46861.66;;;-140.95;40.52
38054;BME280;23859;50.672;7.164;2023-05-21T10:51:22;46845.53;;;-140.95;43.47
38054;BME280;23859;50.672;7.164;2023-05-21T10:59:53;46827.41;;;-140.95;39.05
38054;BME280;23859;50.672;7.164;2023-05-21T11:02:19;46813.28;;;-140.95;39.59
38054;BME280;23859;50.672;7.164;2023-05-21T11:04:47;46801.22;;;-140.95;39.04
38054;BME280;23859;50.672;7.164;2023-05-21T11:07:17;46793.16;;;-140.95;37.70
38054;BME280;23859;50.672;7.164;2023-05-21T11:09:49;46801.22;;;-140.95;36.93
38054;BME280;23859;50.672;7.164;2023-05-21T11:12:15;46762.94;;;-140.95;37.12
38054;BME280;23859;50.672;7.164;2023-05-21T11:14:56;46748.81;;;-140.95;35.88
38054;BME280;23859;50.672;7.164;2023-05-21T11:17:41;46764.94;;;-140.95;34.79
38054;BME280;23859;50.672;7.164;2023-05-21T11:20:12;46752.84;;;-140.95;34.21
38054;BME280;23859;50.672;7.164;2023-05-21T11:22:42;46785.09;;;-140.95;34.65
38054;BME280;23859;50.672;7.164;2023-05-21T11:25:10;46762.94;;;-140.95;34.23
38054;BME280;23859;50.672;7.164;2023-05-21T11:27:38;46726.66;;;-140.95;33.06
38054;BME280;23859;50.672;7.164;2023-05-21T11:32:37;46678.31;;;-140.95;29.28
38054;BME280;23859;50.672;7.164;2023-05-21T11:35:03;46623.91;;;-140.95;27.39
38054;BME280;23859;50.672;7.164;2023-05-21T11:37:31;46648.09;;;-140.95;26.76
38054;BME280;23859;50.672;7.164;2023-05-21T11:40:26;46619.88;;;-140.95;26.06
38054;BME280;23859;50.672;7.164;2023-05-21T11:42:55;46599.72;;;-140.95;25.86
38054;BME280;23859;50.672;7.164;2023-05-21T11:45:25;46615.84;;;-140.95;26.43
38054;BME280;23859;50.672;7.164;2023-05-21T11:47:52;46638.00;;;-140.95;27.10
38054;BME280;23859;50.672;7.164;2023-05-21T11:50:19;46672.25;;;-140.95;28.50
38054;BME280;23859;50.672;7.164;2023-05-21T11:52:45;46686.38;;;-140.95;29.62
38054;BME280;23859;50.672;7.164;2023-05-21T11:55:12;46710.53;;;-140.95;29.67
38054;BME280;23859;50.672;7.164;2023-05-21T11:57:41;46714.56;;;-140.95;30.53
38054;BME280;23859;50.672;7.164;2023-05-21T12:00:13;46710.53;;;-140.95;31.90
38054;BME280;23859;50.672;7.164;2023-05-21T12:02:51;46726.66;;;-140.95;32.33
38054;BME280;23859;50.672;7.164;2023-05-21T12:05:17;46704.50;;;-140.95;30.77
38054;BME280;23859;50.672;7.164;2023-05-21T12:07:46;46696.44;;;-140.95;30.48
38054;BME280;23859;50.672;7.164;2023-05-21T12:10:19;46720.63;;;-140.95;32.08
38054;BME280;23859;50.672;7.164;2023-05-21T12:12:45;46728.69;;;-140.95;32.27
38054;BME280;23859;50.672;7.164;2023-05-21T12:15:11;46766.97;;;-140.95;32.87
38054;BME280;23859;50.672;7.164;2023-05-21T12:17:38;46775.00;;;-140.95;34.59
38054;BME280;23859;50.672;7.164;2023-05-21T12:20:04;46760.91;;;-140.95;34.28
38054;BME280;23859;50.672;7.164;2023-05-21T12:22:33;46773.00;;;-140.95;34.86
38054;BME280;23859;50.672;7.164;2023-05-21T12:24:59;46768.97;;;-140.95;34.45
38054;BME280;23859;50.672;7.164;2023-05-21T12:27:26;46764.94;;;-140.95;34.65
38054;BME280;23859;50.672;7.164;2023-05-21T12:29:53;46760.91;;;-140.95;34.31
38054;BME280;23859;50.672;7.164;2023-05-21T12:32:21;46768.97;;;-140.95;35.71
38054;BME280;23859;50.672;7.164;2023-05-21T12:34:50;47143.75;;;-140.95;35.54
38054;BME280;23859;50.672;7.164;2023-05-21T12:37:25;46801.22;;;-140.95;35.60
38054;BME280;23859;50.672;7.164;2023-05-21T12:39:53;46801.22;;;-140.95;37.86
38054;BME280;23859;50.672;7.164;2023-05-21T12:42:30;46793.16;;;-140.95;35.19
38054;BME280;23859;50.672;7.164;2023-05-21T12:45:00;46777.03;;;-140.95;34.63
38054;BME280;23859;50.672;7.164;2023-05-21T12:47:27;46777.03;;;-140.95;34.44
38054;BME280;23859;50.672;7.164;2023-05-21T12:49:57;46764.94;;;-140.95;34.06
38054;BME280;23859;50.672;7.164;2023-05-21T12:52:23;46750.84;;;-140.95;33.38
38054;BME280;23859;50.672;7.164;2023-05-21T12:54:52;46762.94;;;-140.95;34.59
38054;BME280;23859;50.672;7.164;2023-05-21T12:57:23;46744.78;;;-140.95;33.34